Time;durP1;ratioP1;P1;durP2;ratioP2;P2;SDS_P1;SDS_P2;PMS_P1;PMS_P2;Temp;Humidity;BMP_temperature;BMP_pressure;BME280_temperature;BME280_humidity;BME280_pressure;Samples;Min_cycle;Max_cycle;Signal;HPM_P1;HPM_P2
2022/08/05 00:01:15;;;;;;;47.58;19.88;;;;;;;20.64;95.72;99081.06;5069893;28;20083;-56
2022/08/05 00:03:40;;;;;;;50.05;19.23;;;;;;;20.68;93.94;99080.13;5070940;28;20044;-57
2022/08/05 00:06:06;;;;;;;44.10;19.40;;;;;;;20.54;96.15;99082.09;5077877;28;20124;-55
2022/08/05 00:08:32;;;;;;;48.28;20.70;;;;;;;20.34;98.29;99077.97;5074518;28;20024;-56
2022/08/05 00:10:58;;;;;;;49.03;20.77;;;;;;;20.14;100.00;99081.19;5071551;28;20115;-56
2022/08/05 00:13:23;;;;;;;64.60;22.27;;;;;;;20.08;100.00;99069.63;5072238;28;20396;-56
2022/08/05 00:15:49;;;;;;;56.35;21.77;;;;;;;20.20;100.00;99064.44;5078292;28;20032;-57
2022/08/05 00:18:15;;;;;;;44.00;18.73;;;;;;;20.34;99.30;99058.13;5073458;28;20064;-55
2022/08/05 00:20:40;;;;;;;39.25;16.15;;;;;;;20.50;96.67;99053.09;5074706;28;20374;-56
2022/08/05 00:23:06;;;;;;;42.22;18.13;;;;;;;20.69;95.77;99045.50;5075053;28;20428;-56
2022/08/05 00:25:31;;;;;;;43.28;19.52;;;;;;;20.77;96.68;99033.88;5073829;28;20086;-57
2022/08/05 00:27:57;;;;;;;44.90;19.63;;;;;;;20.68;100.00;99027.59;5073167;28;20036;-56
2022/08/05 00:30:22;;;;;;;45.20;19.58;;;;;;;20.74;100.00;99029.03;5076386;28;20055;-58
2022/08/05 00:32:48;;;;;;;58.55;19.58;;;;;;;20.44;100.00;99015.13;5074260;28;20559;-56
2022/08/05 00:35:14;;;;;;;45.53;19.55;;;;;;;20.50;100.00;99012.28;5074447;28;20040;-56
2022/08/05 00:37:40;;;;;;;32.63;15.32;;;;;;;20.60;99.54;99003.84;5077177;28;20032;-55
2022/08/05 00:40:06;;;;;;;60.08;19.88;;;;;;;20.75;99.55;99006.16;5076822;28;20108;-55
2022/08/05 00:42:32;;;;;;;38.85;17.40;;;;;;;21.00;99.11;99020.16;5074266;28;20031;-56
2022/08/05 00:44:58;;;;;;;57.15;18.88;;;;;;;20.94;98.44;99033.09;5073191;28;20115;-56
2022/08/05 00:47:23;;;;;;;43.17;18.60;;;;;;;20.64;100.00;99054.66;5065315;28;20115;-56
2022/08/05 00:49:51;;;;;;;45.72;19.23;;;;;;;20.20;100.00;99071.81;5072792;28;20399;-55
2022/08/05 00:52:17;;;;;;;49.13;21.17;;;;;;;19.99;100.00;99072.31;5074549;28;20029;-55
2022/08/05 00:54:43;;;;;;;43.78;20.63;;;;;;;20.11;100.00;99057.34;5071015;28;20016;-56
2022/08/05 00:57:11;;;;;;;42.97;18.75;;;;;;;20.23;100.00;99049.41;5073927;28;20028;-54
2022/08/05 00:59:36;;;;;;;39.75;18.42;;;;;;;20.43;100.00;99059.78;5074155;28;20028;-56
2022/08/05 01:02:02;;;;;;;41.00;18.42;;;;;;;20.58;99.83;99044.19;5073839;28;20433;-55
2022/08/05 01:04:27;;;;;;;37.80;19.15;;;;;;;20.62;98.90;99023.41;5073438;28;20064;-56
2022/08/05 01:06:53;;;;;;;42.05;19.33;;;;;;;20.44;100.00;99027.91;5085411;28;20380;-55
2022/08/05 01:09:18;;;;;;;42.53;19.10;;;;;;;20.51;100.00;99011.94;5073715;28;20120;-55
2022/08/05 01:11:45;;;;;;;41.88;19.67;;;;;;;20.23;100.00;99012.13;5073891;28;20058;-56
2022/08/05 01:14:16;;;;;;;40.85;20.10;;;;;;;20.25;100.00;98998.22;5057968;28;20060;-56
2022/08/05 01:16:52;;;;;;;41.20;19.35;;;;;;;20.33;100.00;99007.53;5072711;28;20549;-56
2022/08/05 01:19:20;;;;;;;46.15;20.50;;;;;;;20.33;100.00;99000.16;5069950;28;20050;-56
2022/08/05 01:22:14;;;;;;;41.05;18.23;;;;;;;20.55;100.00;98993.09;5073597;28;20017;-56
2022/08/05 01:24:51;;;;;;;42.05;20.20;;;;;;;20.24;100.00;99008.31;5072174;28;20471;-57
2022/08/05 01:27:50;;;;;;;47.60;19.70;;;;;;;20.13;100.00;98996.06;5072250;28;20025;-56
2022/08/05 01:30:16;;;;;;;51.13;19.05;;;;;;;20.09;100.00;98980.66;5086399;28;20368;-54
2022/08/05 01:32:42;;;;;;;56.20;22.77;;;;;;;19.96;100.00;98974.19;5072950;28;20081;-55
2022/08/05 01:35:09;;;;;;;50.15;21.33;;;;;;;19.70;100.00;98965.88;5073297;28;20085;-55
2022/08/05 01:37:46;;;;;;;48.28;21.58;;;;;;;19.75;100.00;98963.81;5073579;28;20036;-55
2022/08/05 01:40:12;;;;;;;45.53;21.20;;;;;;;19.98;100.00;98959.16;5072283;28;20025;-55
2022/08/05 01:42:38;;;;;;;43.25;21.48;;;;;;;20.06;100.00;98962.25;5071964;28;20020;-56
2022/08/05 01:45:05;;;;;;;46.40;21.35;;;;;;;20.24;100.00;98963.94;5072102;28;20032;-55
2022/08/05 01:47:31;;;;;;;44.50;19.98;;;;;;;20.21;100.00;98964.56;5072915;28;20091;-55
2022/08/05 01:49:56;;;;;;;56.85;24.00;;;;;;;20.09;100.00;98956.19;5071093;28;20028;-55
2022/08/05 01:52:22;;;;;;;46.22;19.92;;;;;;;20.12;100.00;98961.81;5073039;28;20028;-56
2022/08/05 01:54:48;;;;;;;50.03;22.42;;;;;;;19.96;100.00;98957.88;5077482;28;20045;-56
2022/08/05 01:57:17;;;;;;;50.65;22.00;;;;;;;20.20;100.00;98968.41;5071419;28;20067;-57
2022/08/05 01:59:42;;;;;;;51.13;22.58;;;;;;;19.71;100.00;98970.19;5071331;28;20020;-54
2022/08/05 02:02:08;;;;;;;49.95;23.83;;;;;;;19.70;100.00;98984.91;5072607;28;20039;-54
2022/08/05 02:04:35;;;;;;;43.65;19.88;;;;;;;20.00;100.00;98997.75;5066508;28;20044;-57
2022/08/05 02:07:00;;;;;;;52.03;23.90;;;;;;;20.23;100.00;99001.22;5072758;28;20107;-55
2022/08/05 02:09:26;;;;;;;62.15;26.02;;;;;;;19.41;100.00;98991.50;5072728;28;20031;-55
2022/08/05 02:12:01;;;;;;;67.05;27.25;;;;;;;19.24;100.00;99003.00;5071469;28;20088;-55
2022/08/05 02:14:31;;;;;;;65.28;28.98;;;;;;;19.37;100.00;99002.19;5071337;28;20394;-56
2022/08/05 02:17:06;;;;;;;58.45;26.92;;;;;;;19.50;100.00;99008.69;5072923;28;20021;-56
2022/08/05 02:19:36;;;;;;;49.25;23.63;;;;;;;19.71;100.00;99030.78;5064733;28;20470;-56
2022/08/05 02:22:10;;;;;;;48.25;18.83;;;;;;;20.37;100.00;99043.91;5060882;28;20111;-55
2022/08/05 02:24:37;;;;;;;55.15;22.27;;;;;;;20.45;100.00;99052.09;5072514;28;20433;-56
2022/08/05 02:27:02;;;;;;;50.50;22.75;;;;;;;20.29;100.00;99091.69;5071053;28;20020;-57
2022/08/05 02:29:28;;;;;;;55.55;24.40;;;;;;;20.12;100.00;99124.22;5070864;28;20040;-54
2022/08/05 02:31:57;;;;;;;52.13;24.88;;;;;;;19.95;100.00;99131.16;5071183;28;20079;-56
2022/08/05 02:34:23;;;;;;;48.38;23.92;;;;;;;19.93;100.00;99152.41;5055854;28;20017;-57
2022/08/05 02:36:50;;;;;;;58.25;24.52;;;;;;;19.98;100.00;99184.94;5065010;28;20027;-55
2022/08/05 02:39:21;;;;;;;53.95;23.40;;;;;;;20.08;100.00;99210.31;5070838;28;20032;-55
2022/08/05 02:41:47;;;;;;;65.07;24.60;;;;;;;20.01;100.00;99211.50;5072170;28;20067;-54
2022/08/05 02:44:15;;;;;;;64.65;25.70;;;;;;;19.97;100.00;99224.13;5054181;28;20024;-54
2022/08/05 02:46:42;;;;;;;65.47;25.00;;;;;;;19.78;100.00;99201.69;5078036;28;20036;-55
2022/08/05 02:49:07;;;;;;;50.83;24.13;;;;;;;20.06;100.00;99207.88;5053780;28;20387;-57
2022/08/05 02:51:34;;;;;;;54.35;23.65;;;;;;;19.97;100.00;99210.53;5070558;28;20021;-58
2022/08/05 02:53:59;;;;;;;56.20;23.17;;;;;;;19.95;100.00;99206.50;5070807;28;20386;-54
2022/08/05 02:56:26;;;;;;;51.35;22.30;;;;;;;20.11;100.00;99215.13;5071190;28;20035;-54
2022/08/05 02:58:52;;;;;;;47.83;21.73;;;;;;;20.11;100.00;99217.84;5070655;28;20107;-55
2022/08/05 03:01:19;;;;;;;48.72;20.38;;;;;;;20.22;100.00;99221.97;5070741;28;20389;-54
2022/08/05 03:03:47;;;;;;;51.65;22.45;;;;;;;20.14;100.00;99219.94;5071528;28;20052;-55
2022/08/05 03:06:13;;;;;;;47.05;23.20;;;;;;;20.09;100.00;99214.63;5076375;28;20777;-55
2022/08/05 03:08:39;;;;;;;55.22;23.67;;;;;;;20.22;100.00;99208.38;5054149;28;20074;-55
2022/08/05 03:11:16;;;;;;;56.65;23.95;;;;;;;20.21;100.00;99206.75;5070580;28;20412;-55
2022/08/05 03:13:41;;;;;;;54.80;22.25;;;;;;;20.10;100.00;99197.22;5071953;28;20020;-56
2022/08/05 03:16:07;;;;;;;50.72;21.98;;;;;;;19.95;100.00;99223.63;5070438;28;20684;-57
2022/08/05 03:18:32;;;;;;;55.05;24.58;;;;;;;20.21;100.00;99233.94;5071322;28;20020;-54
2022/08/05 03:20:58;;;;;;;67.20;25.83;;;;;;;19.77;100.00;99232.72;5071550;28;20016;-54
2022/08/05 03:23:23;;;;;;;58.65;23.92;;;;;;;19.48;100.00;99244.66;5070623;28;20024;-54
2022/08/05 03:25:49;;;;;;;50.10;23.83;;;;;;;19.78;100.00;99261.50;5075345;28;20055;-56
2022/08/05 03:28:14;;;;;;;62.60;26.48;;;;;;;19.46;100.00;99255.00;5070650;28;20043;-56
2022/08/05 03:30:40;;;;;;;65.05;28.38;;;;;;;19.24;100.00;99247.53;5071981;28;20058;-55
2022/08/05 03:33:06;;;;;;;71.18;31.40;;;;;;;19.26;100.00;99239.09;5071091;28;20070;-56
2022/08/05 03:35:32;;;;;;;71.22;29.15;;;;;;;19.33;100.00;99236.78;5070449;28;20020;-56
2022/08/05 03:38:03;;;;;;;68.32;31.20;;;;;;;19.41;100.00;99241.53;5055270;28;20028;-55
2022/08/05 03:40:28;;;;;;;72.68;30.33;;;;;;;19.42;100.00;99240.44;5070368;28;20107;-56
2022/08/05 03:42:54;;;;;;;63.80;27.60;;;;;;;19.59;100.00;99264.28;5071519;28;20099;-55
2022/08/05 03:45:20;;;;;;;60.35;26.58;;;;;;;19.75;100.00;99259.41;5074176;28;20052;-56
2022/08/05 03:47:45;;;;;;;49.38;26.90;;;;;;;19.71;100.00;99250.22;5070967;28;20032;-55
2022/08/05 03:50:11;;;;;;;60.08;25.85;;;;;;;19.60;100.00;99242.25;5073923;28;20078;-56
2022/08/05 03:52:57;;;;;;;51.63;24.17;;;;;;;19.76;100.00;99236.53;5075366;28;20363;-55
2022/08/05 03:55:25;;;;;;;36.25;17.70;;;;;;;19.98;100.00;99223.00;5063130;28;20537;-55
2022/08/05 03:57:51;;;;;;;52.42;21.13;;;;;;;19.85;100.00;99215.69;5075195;28;20033;-55
2022/08/05 04:00:16;;;;;;;42.75;19.33;;;;;;;19.87;100.00;99205.31;5057819;28;20036;-57
2022/08/05 04:02:47;;;;;;;39.13;17.45;;;;;;;20.02;100.00;99198.75;5062375;28;20052;-54
2022/08/05 04:05:15;;;;;;;43.05;20.90;;;;;;;19.91;100.00;99179.09;5080772;28;20052;-54
2022/08/05 04:07:41;;;;;;;53.28;26.15;;;;;;;19.85;100.00;99158.56;5067626;28;20127;-55
2022/08/05 04:10:07;;;;;;;52.45;23.67;;;;;;;19.80;100.00;99135.00;5075330;28;20119;-55
2022/08/05 04:12:33;;;;;;;45.88;23.10;;;;;;;19.92;100.00;99133.66;5073973;28;20443;-56
2022/08/05 04:14:59;;;;;;;59.40;24.98;;;;;;;19.70;100.00;99109.97;5059586;28;20029;-55
2022/08/05 04:17:24;;;;;;;56.75;25.33;;;;;;;19.49;100.00;99091.31;5083323;28;20033;-57
2022/08/05 04:19:50;;;;;;;57.25;25.35;;;;;;;19.42;100.00;99101.00;5073016;28;20485;-55
2022/08/05 04:22:15;;;;;;;50.70;24.52;;;;;;;19.17;100.00;99079.50;5061288;28;20394;-57
2022/08/05 04:24:44;;;;;;;49.05;23.33;;;;;;;19.11;100.00;99091.56;5074953;28;20150;-56
2022/08/05 04:27:10;;;;;;;52.78;22.63;;;;;;;18.91;100.00;99079.19;5078570;28;20028;-56
2022/08/05 04:29:36;;;;;;;47.08;22.98;;;;;;;18.63;100.00;99089.19;5074009;28;20526;-57
2022/08/05 04:32:01;;;;;;;38.92;21.48;;;;;;;18.45;100.00;99090.06;5074580;28;20020;-57
2022/08/05 04:34:27;;;;;;;51.47;23.73;;;;;;;18.45;100.00;99111.78;5074103;28;20016;-56
2022/08/05 04:36:55;;;;;;;46.88;25.58;;;;;;;18.25;100.00;99083.06;5074371;28;20113;-53
2022/08/05 04:39:21;;;;;;;47.38;27.35;;;;;;;18.05;100.00;99081.50;5073184;28;20032;-54
2022/08/05 04:41:46;;;;;;;59.80;30.63;;;;;;;17.98;100.00;99059.38;5073064;28;20019;-54
2022/08/05 04:44:12;;;;;;;61.65;30.35;;;;;;;17.89;100.00;99035.63;5078248;28;20024;-56
2022/08/05 04:46:38;;;;;;;65.75;32.25;;;;;;;17.92;100.00;99038.84;5074354;28;20040;-55
2022/08/05 04:49:05;;;;;;;68.75;33.95;;;;;;;17.98;100.00;99019.50;5073862;28;20024;-57
2022/08/05 04:51:31;;;;;;;76.25;38.78;;;;;;;18.02;100.00;99041.38;5074548;28;20029;-56
2022/08/05 04:53:57;;;;;;;65.68;36.78;;;;;;;18.44;100.00;99081.09;5074405;28;20025;-54
2022/08/05 04:56:23;;;;;;;66.53;35.28;;;;;;;18.55;100.00;99095.31;5079760;28;20044;-57
2022/08/05 04:58:48;;;;;;;65.82;34.97;;;;;;;18.76;100.00;99112.06;5073728;28;20054;-54
2022/08/05 05:01:14;;;;;;;60.40;32.53;;;;;;;19.02;100.00;99128.72;5074344;28;20032;-54
2022/08/05 05:03:40;;;;;;;47.38;26.40;;;;;;;19.10;100.00;99130.72;5059316;28;20052;-56
2022/08/05 05:06:09;;;;;;;53.20;25.33;;;;;;;19.05;100.00;99132.72;5072875;28;20024;-54
2022/08/05 05:08:35;;;;;;;40.00;22.83;;;;;;;19.45;100.00;99147.41;5079614;28;20050;-57
2022/08/05 05:11:01;;;;;;;48.15;25.25;;;;;;;19.14;100.00;99149.91;5078531;28;20111;-54
2022/08/05 05:13:27;;;;;;;49.08;25.77;;;;;;;19.10;100.00;99155.16;5079339;28;20031;-56
2022/08/05 05:15:52;;;;;;;44.25;23.55;;;;;;;19.37;100.00;99154.38;5086836;28;20021;-56
2022/08/05 05:18:17;;;;;;;62.95;28.92;;;;;;;19.48;100.00;99162.31;5055255;28;20367;-55
2022/08/05 05:20:43;;;;;;;72.85;30.73;;;;;;;19.21;100.00;99144.91;5073886;28;20032;-55
2022/08/05 05:23:09;;;;;;;55.88;28.10;;;;;;;19.44;100.00;99142.28;5062368;28;20028;-57
2022/08/05 05:25:34;;;;;;;64.90;30.15;;;;;;;19.50;100.00;99136.44;5073398;28;20024;-56
2022/08/05 05:28:00;;;;;;;61.53;32.42;;;;;;;19.33;100.00;99128.09;5055449;28;20489;-55
2022/08/05 05:30:26;;;;;;;67.15;30.20;;;;;;;19.30;100.00;99117.84;5072244;28;20027;-54
2022/08/05 05:32:53;;;;;;;63.08;29.30;;;;;;;19.43;100.00;99095.28;5071861;28;20043;-56
2022/08/05 05:35:21;;;;;;;54.65;26.75;;;;;;;19.41;100.00;99089.34;5075794;28;20056;-57
2022/08/05 05:37:50;;;;;;;48.72;24.00;;;;;;;19.34;100.00;99080.78;5072180;28;20032;-56
2022/08/05 05:40:16;;;;;;;50.28;23.70;;;;;;;19.37;100.00;99078.28;5072355;28;20040;-57
2022/08/05 05:42:42;;;;;;;43.55;21.95;;;;;;;19.47;100.00;99065.56;5072982;28;20074;-56
2022/08/05 05:45:08;;;;;;;45.53;21.90;;;;;;;19.59;100.00;99058.50;5078239;28;20024;-56
2022/08/05 05:47:34;;;;;;;36.75;20.20;;;;;;;19.76;100.00;99078.81;5078387;28;20030;-58
2022/08/05 05:50:00;;;;;;;44.00;21.30;;;;;;;19.66;100.00;99087.19;5078936;28;20520;-57
2022/08/05 05:52:25;;;;;;;44.80;20.10;;;;;;;19.76;100.00;99093.22;5074895;28;20020;-54
2022/08/05 05:54:51;;;;;;;40.05;20.95;;;;;;;20.04;100.00;99115.72;5073079;28;20028;-56
2022/08/05 05:57:20;;;;;;;39.17;20.40;;;;;;;20.12;100.00;99129.66;5071777;28;20043;-56
2022/08/05 05:59:46;;;;;;;33.58;18.58;;;;;;;20.07;100.00;99124.34;5072901;28;20186;-56
2022/08/05 06:02:12;;;;;;;32.28;16.85;;;;;;;20.12;100.00;99110.63;5073233;28;20088;-54
2022/08/05 06:04:38;;;;;;;38.63;18.58;;;;;;;19.95;100.00;99103.16;5070883;28;20076;-55
2022/08/05 06:07:03;;;;;;;34.50;17.08;;;;;;;19.82;100.00;99099.38;5072664;28;20071;-55
2022/08/05 06:09:29;;;;;;;32.20;17.33;;;;;;;19.93;100.00;99111.59;5073120;28;20032;-56
2022/08/05 06:11:54;;;;;;;35.90;17.25;;;;;;;20.20;100.00;99120.78;5070626;28;20475;-55
2022/08/05 06:14:20;;;;;;;32.78;17.25;;;;;;;20.34;100.00;99126.94;5072765;28;20138;-55
2022/08/05 06:16:49;;;;;;;32.80;18.70;;;;;;;20.43;100.00;99140.63;5072878;28;20021;-56
2022/08/05 06:19:14;;;;;;;35.10;19.30;;;;;;;20.49;100.00;99163.88;5070830;28;20382;-54
2022/08/05 06:21:40;;;;;;;38.40;18.88;;;;;;;20.47;100.00;99147.88;5072434;28;20340;-55
2022/08/05 06:24:06;;;;;;;45.28;21.48;;;;;;;20.18;100.00;99129.25;5072994;28;20025;-54
2022/08/05 06:26:31;;;;;;;48.03;21.25;;;;;;;19.91;100.00;99129.34;5072418;28;20032;-55
2022/08/05 06:28:57;;;;;;;51.80;21.67;;;;;;;20.01;100.00;99157.09;5071394;28;20400;-55
2022/08/05 06:31:22;;;;;;;40.25;21.83;;;;;;;20.21;100.00;99165.91;5071238;28;20045;-55
2022/08/05 06:33:48;;;;;;;47.40;23.60;;;;;;;20.30;100.00;99168.72;5070680;28;20027;-56
2022/08/05 06:36:14;;;;;;;40.70;23.55;;;;;;;20.43;100.00;99167.84;5072098;28;20028;-53
2022/08/05 06:38:39;;;;;;;48.08;22.35;;;;;;;20.73;100.00;99166.31;5076403;28;20134;-55
2022/08/05 06:41:05;;;;;;;40.55;21.10;;;;;;;21.37;100.00;99178.81;5071604;28;20023;-54
2022/08/05 06:43:30;;;;;;;44.78;21.52;;;;;;;21.40;98.53;99172.78;5072285;28;20595;-55
2022/08/05 06:45:56;;;;;;;38.78;19.92;;;;;;;23.00;91.24;99173.81;5072431;28;20029;-55
2022/08/05 06:48:21;;;;;;;36.45;17.48;;;;;;;23.06;87.25;99184.56;5071718;28;20482;-55
2022/08/05 06:50:47;;;;;;;31.33;16.90;;;;;;;22.49;91.70;99177.41;5070752;28;20502;-54
2022/08/05 06:53:16;;;;;;;31.15;16.92;;;;;;;22.32;93.66;99175.53;5072410;28;20035;-54
2022/08/05 06:55:41;;;;;;;38.85;18.17;;;;;;;21.95;97.25;99167.59;5070935;28;20438;-56
2022/08/05 06:58:07;;;;;;;48.03;19.80;;;;;;;21.48;100.00;99159.16;5076776;28;20615;-56
2022/08/05 07:00:32;;;;;;;35.97;18.63;;;;;;;21.45;100.00;99153.53;5072204;28;20031;-54
2022/08/05 07:02:58;;;;;;;41.30;20.15;;;;;;;21.59;99.23;99154.25;5068312;28;20040;-57
2022/08/05 07:05:24;;;;;;;44.45;21.58;;;;;;;21.72;97.99;99183.28;5073480;28;20037;-54
2022/08/05 07:07:49;;;;;;;43.00;19.20;;;;;;;21.64;98.85;99181.34;5075026;28;20025;-55
2022/08/05 07:10:15;;;;;;;50.83;20.58;;;;;;;21.76;95.20;99186.97;5071888;28;20377;-54
2022/08/05 07:18:08;;;;;;;41.45;20.73;;;;;;;21.95;96.15;99194.09;5071073;28;20064;-57
2022/08/05 07:20:34;;;;;;;40.90;23.45;;;;;;;22.26;95.56;99187.72;5071744;28;20478;-57
2022/08/05 07:22:59;;;;;;;36.30;21.00;;;;;;;22.37;93.73;99205.41;5072803;28;20012;-57
2022/08/05 07:25:25;;;;;;;39.53;20.05;;;;;;;22.60;91.84;99215.00;5076237;28;20021;-56
2022/08/05 07:27:51;;;;;;;42.03;22.40;;;;;;;22.65;93.54;99216.78;5075951;28;20436;-56
2022/08/05 07:30:16;;;;;;;40.28;21.25;;;;;;;22.42;92.63;99213.44;5075049;28;20029;-57
2022/08/05 07:32:42;;;;;;;49.72;22.58;;;;;;;22.16;96.67;99208.69;5061292;28;20482;-58
2022/08/05 07:35:08;;;;;;;45.45;22.42;;;;;;;22.15;95.85;99218.03;5082210;28;20471;-57
2022/08/05 07:37:34;;;;;;;42.38;20.63;;;;;;;22.13;97.00;99223.00;5075387;28;20031;-57
2022/08/05 07:39:59;;;;;;;45.58;24.15;;;;;;;22.38;95.18;99234.28;5076525;28;20393;-56
2022/08/05 07:42:25;;;;;;;47.90;23.38;;;;;;;22.37;93.13;99232.69;5075423;28;20478;-55
2022/08/05 07:44:50;;;;;;;46.95;24.20;;;;;;;21.39;99.23;99231.13;5075581;28;20029;-58
2022/08/05 07:47:16;;;;;;;48.65;23.15;;;;;;;21.60;100.00;99232.19;5075720;28;20028;-56
2022/08/05 07:49:41;;;;;;;33.58;21.58;;;;;;;21.68;99.46;99236.84;5075040;28;20035;-56
2022/08/05 07:52:07;;;;;;;43.38;23.42;;;;;;;21.81;100.00;99239.78;5075273;28;20025;-57
2022/08/05 07:54:32;;;;;;;43.25;22.83;;;;;;;21.73;100.00;99252.28;5075652;28;20016;-56
2022/08/05 07:56:58;;;;;;;53.33;24.52;;;;;;;21.81;99.27;99258.88;5075647;28;20035;-55
2022/08/05 07:59:23;;;;;;;55.42;26.05;;;;;;;21.93;99.46;99256.34;5074441;28;20028;-56
2022/08/05 08:01:49;;;;;;;46.47;26.05;;;;;;;21.88;100.00;99259.22;5075271;28;20017;-55
2022/08/05 08:04:14;;;;;;;58.90;23.77;;;;;;;21.93;98.47;99250.91;5073260;28;20067;-57
2022/08/05 08:06:40;;;;;;;52.08;26.95;;;;;;;22.03;97.63;99269.69;5057307;28;20025;-56
2022/08/05 08:09:06;;;;;;;59.85;28.90;;;;;;;22.06;100.00;99277.25;5075159;28;20078;-56
2022/08/05 08:11:31;;;;;;;55.63;27.27;;;;;;;22.31;97.27;99285.84;5072231;28;20095;-57
2022/08/05 08:13:57;;;;;;;77.70;28.85;;;;;;;22.06;98.91;99281.91;5074833;28;20028;-56
2022/08/05 08:16:23;;;;;;;65.57;28.95;;;;;;;21.86;96.41;99280.56;5073755;28;20386;-56
2022/08/05 08:18:48;;;;;;;58.80;29.88;;;;;;;21.81;94.04;99275.25;5076414;28;20052;-56
2022/08/05 08:21:13;;;;;;;51.40;28.45;;;;;;;22.08;92.96;99269.53;5074609;28;20024;-56
2022/08/05 08:23:39;;;;;;;70.30;27.27;;;;;;;23.39;86.15;99266.84;5078581;28;20058;-56
2022/08/05 08:26:05;;;;;;;51.58;25.67;;;;;;;23.42;84.74;99242.34;5074762;28;20122;-56
2022/08/05 08:28:30;;;;;;;56.75;24.77;;;;;;;23.15;86.12;99234.56;5082044;28;20024;-57
2022/08/05 08:30:56;;;;;;;49.78;25.45;;;;;;;22.70;85.95;99248.59;5073089;28;20025;-57
2022/08/05 08:33:21;;;;;;;68.15;27.95;;;;;;;22.14;89.11;99256.53;5074681;28;20098;-55
2022/08/05 08:35:47;;;;;;;48.20;26.02;;;;;;;22.26;88.28;99261.41;5073790;28;20020;-56
2022/08/05 08:38:15;;;;;;;54.03;28.52;;;;;;;22.29;87.04;99267.06;5073382;28;20029;-56
2022/08/05 08:40:40;;;;;;;55.53;27.50;;;;;;;22.28;88.21;99267.38;5074648;28;20031;-57
2022/08/05 08:43:06;;;;;;;64.30;29.80;;;;;;;21.76;89.43;99266.06;5074402;28;20025;-57
2022/08/05 08:45:32;;;;;;;50.60;28.38;;;;;;;21.31;92.40;99268.91;5078288;28;20017;-57
2022/08/05 08:48:01;;;;;;;61.28;29.08;;;;;;;21.05;92.41;99265.25;5072787;28;20037;-57
2022/08/05 08:50:27;;;;;;;58.60;30.23;;;;;;;20.89;93.05;99265.63;5083577;28;20024;-56
2022/08/05 08:52:53;;;;;;;61.20;30.05;;;;;;;21.11;92.74;99267.50;5072977;28;20394;-55
2022/08/05 08:55:19;;;;;;;52.85;30.35;;;;;;;21.36;92.16;99281.59;5074426;28;20467;-57
2022/08/05 08:57:46;;;;;;;50.33;31.33;;;;;;;21.20;91.38;99285.84;5073927;28;20029;-58
2022/08/05 09:00:12;;;;;;;57.42;28.52;;;;;;;21.62;91.65;99294.59;5072952;28;20116;-56
2022/08/05 09:02:38;;;;;;;56.22;29.77;;;;;;;21.53;90.67;99297.28;5074065;28;20025;-57
2022/08/05 09:05:03;;;;;;;46.78;27.52;;;;;;;21.70;90.14;99305.53;5071978;28;20090;-55
2022/08/05 09:07:29;;;;;;;47.88;26.75;;;;;;;22.07;88.83;99306.16;5074379;28;20028;-57
2022/08/05 09:09:55;;;;;;;43.78;26.58;;;;;;;21.59;88.97;99297.94;5074133;28;20025;-57
2022/08/05 09:12:20;;;;;;;51.13;26.85;;;;;;;21.65;88.79;99294.78;5074113;28;20025;-58
2022/08/05 09:14:46;;;;;;;46.45;28.23;;;;;;;21.27;88.83;99283.50;5088164;28;20470;-55
2022/08/05 09:17:11;;;;;;;57.85;28.85;;;;;;;21.51;88.76;99285.88;5055599;28;20394;-56
2022/08/05 09:19:37;;;;;;;50.65;29.45;;;;;;;21.35;89.51;99280.00;5078533;28;20032;-56
2022/08/05 09:22:03;;;;;;;50.30;27.90;;;;;;;21.55;88.57;99281.41;5082343;28;20020;-59
2022/08/05 09:24:28;;;;;;;57.88;31.08;;;;;;;21.36;88.48;99281.59;5073705;28;20056;-57
2022/08/05 09:26:55;;;;;;;52.00;31.42;;;;;;;21.34;88.07;99283.81;5073600;28;20027;-55
2022/08/05 09:29:20;;;;;;;58.60;33.88;;;;;;;21.33;88.93;99276.78;5073356;28;20409;-56
2022/08/05 09:32:08;;;;;;;55.53;31.60;;;;;;;21.99;85.59;99293.31;5073325;28;20074;-55
2022/08/05 09:34:49;;;;;;;53.72;31.17;;;;;;;21.40;85.93;99300.91;5083064;28;20035;-56
2022/08/05 09:37:25;;;;;;;57.40;30.73;;;;;;;21.33;87.10;99310.28;5072184;28;20032;-56
2022/08/05 09:39:50;;;;;;;59.67;31.67;;;;;;;21.35;87.69;99310.00;5073172;28;20031;-57
2022/08/05 09:42:17;;;;;;;50.97;30.42;;;;;;;21.33;88.78;99304.03;5071830;28;20025;-57
2022/08/05 09:44:49;;;;;;;54.35;29.08;;;;;;;21.75;87.25;99313.59;5079869;28;20078;-56
2022/08/05 09:47:25;;;;;;;49.38;28.45;;;;;;;21.90;85.15;99311.56;5078011;28;20043;-54
2022/08/05 09:49:55;;;;;;;58.72;30.90;;;;;;;21.44;85.96;99315.50;5072657;28;20123;-57
2022/08/05 09:52:28;;;;;;;42.85;27.15;;;;;;;21.49;87.03;99320.81;5073262;28;20030;-56
2022/08/05 09:54:55;;;;;;;55.03;29.83;;;;;;;21.55;85.92;99311.41;5073008;28;20120;-57
2022/08/05 09:57:36;;;;;;;51.45;29.33;;;;;;;21.56;87.30;99314.94;5073034;28;20089;-56
2022/08/05 10:00:12;;;;;;;46.92;28.77;;;;;;;22.09;84.18;99317.56;5071691;28;20028;-56
2022/08/05 10:02:40;;;;;;;47.13;26.23;;;;;;;22.06;81.79;99315.44;5072864;28;20025;-57
2022/08/05 10:05:13;;;;;;;49.47;27.48;;;;;;;22.30;81.09;99323.25;5072975;28;20076;-58
2022/08/05 10:07:58;;;;;;;46.15;25.58;;;;;;;23.08;76.48;99321.72;5088420;28;20032;-56
2022/08/05 10:10:37;;;;;;;39.38;24.45;;;;;;;22.91;78.50;99331.50;5072803;28;20039;-56
2022/08/05 10:13:03;;;;;;;51.53;27.70;;;;;;;22.39;79.80;99328.75;5073267;28;20294;-57
2022/08/05 10:15:30;;;;;;;48.40;27.00;;;;;;;22.51;80.35;99333.56;5072742;28;20039;-56
2022/08/05 10:18:15;;;;;;;54.45;27.48;;;;;;;22.15;81.43;99332.66;5071838;28;20035;-55
2022/08/05 10:20:48;;;;;;;43.47;25.33;;;;;;;22.64;79.52;99340.84;5072182;28;20497;-55
2022/08/05 10:23:18;;;;;;;38.80;24.00;;;;;;;22.68;77.27;99341.78;5072417;28;20360;-56
2022/08/05 10:25:44;;;;;;;40.33;22.42;;;;;;;23.01;77.26;99339.44;5072460;28;20040;-56
2022/08/05 10:28:09;;;;;;;35.10;20.25;;;;;;;22.74;77.00;99351.44;5071100;28;20051;-56
2022/08/05 10:30:37;;;;;;;38.42;21.63;;;;;;;21.93;79.62;99340.94;5072420;28;20104;-58
2022/08/05 10:33:03;;;;;;;35.72;21.95;;;;;;;22.49;77.83;99339.38;5072309;28;20033;-55
2022/08/05 10:35:32;;;;;;;37.35;22.08;;;;;;;22.17;78.10;99330.44;5071465;28;20021;-55
2022/08/05 10:38:01;;;;;;;36.90;21.08;;;;;;;22.86;77.75;99330.88;5072116;28;20036;-57
2022/08/05 10:40:33;;;;;;;33.83;20.93;;;;;;;24.05;73.00;99346.56;5075372;28;20027;-56
2022/08/05 10:43:31;;;;;;;41.13;22.13;;;;;;;24.66;70.23;99357.22;5075310;28;20094;-57
2022/08/05 10:45:58;;;;;;;37.00;21.50;;;;;;;25.04;68.21;99344.50;5065141;28;20041;-55
2022/08/05 10:48:31;;;;;;;38.70;21.73;;;;;;;24.83;71.56;99361.75;5074436;28;20028;-57
2022/08/05 10:50:58;;;;;;;45.15;23.60;;;;;;;24.27;71.12;99361.94;5073198;28;20081;-57
2022/08/05 10:53:49;;;;;;;47.55;26.65;;;;;;;23.01;74.99;99369.50;5079767;28;20040;-56
2022/08/05 10:56:16;;;;;;;49.25;26.25;;;;;;;22.84;77.10;99377.66;5071893;28;20028;-56
2022/08/05 10:58:48;;;;;;;51.42;25.30;;;;;;;22.56;76.72;99371.66;5071163;28;20119;-55
2022/08/05 11:01:14;;;;;;;47.95;23.42;;;;;;;22.13;77.79;99375.84;5072518;28;20363;-56
2022/08/05 11:03:58;;;;;;;60.10;24.30;;;;;;;21.68;79.73;99389.59;5070465;28;20106;-56
2022/08/05 11:06:24;;;;;;;46.17;23.77;;;;;;;21.05;83.16;99388.66;5078689;28;20036;-55
2022/08/05 11:09:21;;;;;;;52.38;25.02;;;;;;;21.17;83.22;99404.47;5071944;28;20410;-56
2022/08/05 11:11:50;;;;;;;49.85;22.77;;;;;;;20.94;82.17;99400.88;5076739;28;20056;-55
2022/08/05 11:14:23;;;;;;;42.47;20.95;;;;;;;20.71;84.09;99413.66;5080840;28;20036;-58
2022/08/05 11:17:26;;;;;;;40.90;20.35;;;;;;;20.43;84.10;99413.66;5069446;28;20437;-58
2022/08/05 11:19:55;;;;;;;35.30;17.55;;;;;;;20.21;85.74;99432.59;5069267;28;20487;-57